Pawnee, Illinois
Current Conditions -  °F | °C
As of 12:15 PM on Thursday 27 Nov 2014 (Local Time) from KTAZ Reporting Station
Overcast Overcast  
Wind Chill: 17°   Ceiling: 3000
Heat Index: 28°   Visibility: 10mi
Dew Point: 21°   Wind: 16mph
Humidity: 74%   Direction: 280°W
Pressure: 30.43"   Gusts: 20mph
Location:  39.59°N, 89.58°W
Report Text: KTAZ 271815Z AUTO 28014G17KT 10SM SCT021 OVC030 M02/M06 A3043 RMK AO2
Loading
Personal Weather Stations






























Interactive Weather Map New forecast layout! Learn more

10-Day Weather Forecast

Advertisements
Track Severe Weather on mobile